Gosford Narara Research, New South Wales

1:49 PM AEST on September 28, 2016 (GMT +1000)
Narara | | Change Station

Elev 72 ft 33.41 °S, 151.33 °E | Updated 10 minutes ago

Clear
Clear
69.5 °F
Feels Like 69.5 °F
N
2.0
Wind Variable Wind from NNW
Gusts 7.0 mph

Today
High -- | Low -- °F
--% Chance of Precip.
Yesterday
High -- | Low -- °F
Precip. -- in
Pressure 29.89 in
Visibility -9999.0 miles
Clouds
Dew Point 46 °F
Humidity 43%
Rainfall 0.00 in
Snow Depth Not available.
5:36 AM 5:55 PM
Waning Crescent, 8% visible
METAR YSSY 280330Z 12010KT CAVOK 20/06 Q1012 NOSIG
Pressure 29.89 in
Visibility -9999.0 miles
Clouds
Dew Point 46 °F
Humidity 43%
Rainfall 0.00 in
Snow Depth Not available.
5:36 AM 5:55 PM
Waning Crescent, 8% visible
METAR YSSY 280330Z 12010KT CAVOK 20/06 Q1012 NOSIG

10-Day Weather Forecast

Almanac

Astronomy

Sep. 28, 2016 Rise Set
Actual Time
Civil Twilight
Nautical Twilight
Astronomical Twilight
Moon
Length of Visible Light
Length of Day
Tomorrow will be .
, % of the Moon is Illuminated

Today's Extremes

Country Highs Country Lows

Community

WunderPhotos

Upload Photos

1,942,203 photos uploaded!

WunderBlog® & News

Nearby

Air Quality

  Air Quality AQ Index Pollutant
Not available.

Snow Depth

Station Depth Elevation

Earthquake Activity

City Distance Mag. Time & Date
Minimum magnitude displayed is 2.5.

Coastal Water Temperatures

Place Temperature

Stations

Nearby Weather Stations

Station Location Temp. Windchill Dew Point Humidity Wind Precip. Elev Updated Type